sensor_id;sensor_type;location;lat;lon;timestamp;pressure;altitude;pressure_sealevel;temperature;humidity
12536;BME280;6334;48.696;2.114;2023-09-18T00:01:14;99046.36;;;19.38;80.92
12536;BME280;6334;48.696;2.114;2023-09-18T00:03:45;99045.90;;;19.41;80.67
12536;BME280;6334;48.696;2.114;2023-09-18T00:06:15;99059.67;;;19.10;82.21
12536;BME280;6334;48.696;2.114;2023-09-18T00:08:46;99061.27;;;19.38;81.47
12536;BME280;6334;48.696;2.114;2023-09-18T00:11:16;99064.80;;;19.20;81.61
12536;BME280;6334;48.696;2.114;2023-09-18T00:13:47;99062.71;;;19.28;81.92
12536;BME280;6334;48.696;2.114;2023-09-18T00:16:17;99047.98;;;19.35;81.20
12536;BME280;6334;48.696;2.114;2023-09-18T00:18:48;99054.14;;;19.08;82.33
12536;BME280;6334;48.696;2.114;2023-09-18T00:21:18;99047.55;;;19.25;81.33
12536;BME280;6334;48.696;2.114;2023-09-18T00:23:49;99046.34;;;19.02;82.39
12536;BME280;6334;48.696;2.114;2023-09-18T00:26:19;99042.22;;;19.25;81.39
12536;BME280;6334;48.696;2.114;2023-09-18T00:28:50;99039.00;;;18.92;82.70
12536;BME280;6334;48.696;2.114;2023-09-18T00:31:20;99039.73;;;18.95;82.57
12536;BME280;6334;48.696;2.114;2023-09-18T00:33:50;99045.44;;;18.99;82.14
12536;BME280;6334;48.696;2.114;2023-09-18T00:36:21;99048.61;;;19.10;81.61
12536;BME280;6334;48.696;2.114;2023-09-18T00:38:51;99054.38;;;18.84;83.25
12536;BME280;6334;48.696;2.114;2023-09-18T00:41:22;99056.28;;;18.90;82.46
12536;BME280;6334;48.696;2.114;2023-09-18T00:43:52;99054.39;;;18.53;83.83
12536;BME280;6334;48.696;2.114;2023-09-18T00:46:23;99055.98;;;18.66;83.66
12536;BME280;6334;48.696;2.114;2023-09-18T00:48:55;99053.40;;;18.43;84.55
12536;BME280;6334;48.696;2.114;2023-09-18T00:51:25;99054.46;;;18.50;84.03
12536;BME280;6334;48.696;2.114;2023-09-18T00:53:56;99049.88;;;18.64;83.22
12536;BME280;6334;48.696;2.114;2023-09-18T00:56:26;99045.53;;;18.92;82.13
12536;BME280;6334;48.696;2.114;2023-09-18T00:58:56;99041.79;;;18.61;83.31
12536;BME280;6334;48.696;2.114;2023-09-18T01:01:27;99041.64;;;18.57;83.39
12536;BME280;6334;48.696;2.114;2023-09-18T01:03:57;99031.69;;;19.15;80.40
12536;BME280;6334;48.696;2.114;2023-09-18T01:06:28;99048.20;;;18.79;82.26
12536;BME280;6334;48.696;2.114;2023-09-18T01:08:58;99050.17;;;18.59;82.90
12536;BME280;6334;48.696;2.114;2023-09-18T01:11:36;99041.86;;;18.68;82.58
12536;BME280;6334;48.696;2.114;2023-09-18T01:16:59;99033.58;;;18.36;84.18
12536;BME280;6334;48.696;2.114;2023-09-18T01:19:43;99039.36;;;18.40;84.07
12536;BME280;6334;48.696;2.114;2023-09-18T01:22:09;99047.48;;;18.39;84.36
12536;BME280;6334;48.696;2.114;2023-09-18T01:24:40;99041.31;;;18.53;83.59
12536;BME280;6334;48.696;2.114;2023-09-18T01:27:11;99039.83;;;18.29;85.15
12536;BME280;6334;48.696;2.114;2023-09-18T01:29:41;99032.33;;;18.39;84.39
12536;BME280;6334;48.696;2.114;2023-09-18T01:32:11;99029.52;;;18.38;84.05
12536;BME280;6334;48.696;2.114;2023-09-18T01:34:46;99028.84;;;18.38;83.93
12536;BME280;6334;48.696;2.114;2023-09-18T01:37:19;99043.84;;;18.45;84.05
12536;BME280;6334;48.696;2.114;2023-09-18T01:39:49;99041.80;;;18.36;84.19
12536;BME280;6334;48.696;2.114;2023-09-18T01:42:19;99039.42;;;18.54;83.92
12536;BME280;6334;48.696;2.114;2023-09-18T01:44:49;99043.31;;;18.50;83.67
12536;BME280;6334;48.696;2.114;2023-09-18T01:47:20;99030.81;;;18.25;84.88
12536;BME280;6334;48.696;2.114;2023-09-18T01:49:56;99026.48;;;18.53;84.59
12536;BME280;6334;48.696;2.114;2023-09-18T01:52:26;99036.15;;;18.86;82.66
12536;BME280;6334;48.696;2.114;2023-09-18T01:54:57;99037.41;;;18.46;83.93
12536;BME280;6334;48.696;2.114;2023-09-18T01:57:27;99033.38;;;18.38;84.00
12536;BME280;6334;48.696;2.114;2023-09-18T01:59:58;99033.81;;;18.10;85.40
12536;BME280;6334;48.696;2.114;2023-09-18T02:02:28;99030.06;;;18.20;85.39
12536;BME280;6334;48.696;2.114;2023-09-18T02:04:59;99033.37;;;18.43;84.46
12536;BME280;6334;48.696;2.114;2023-09-18T02:07:29;99032.06;;;18.16;85.71
12536;BME280;6334;48.696;2.114;2023-09-18T02:10:00;99031.73;;;18.16;85.71
12536;BME280;6334;48.696;2.114;2023-09-18T02:12:30;99034.77;;;18.15;85.86
12536;BME280;6334;48.696;2.114;2023-09-18T02:15:02;99028.43;;;18.44;84.46
12536;BME280;6334;48.696;2.114;2023-09-18T02:17:32;99004.09;;;18.07;85.11
12536;BME280;6334;48.696;2.114;2023-09-18T02:20:03;99029.95;;;18.44;84.27
12536;BME280;6334;48.696;2.114;2023-09-18T02:22:33;99037.66;;;18.30;84.54
12536;BME280;6334;48.696;2.114;2023-09-18T02:25:04;99039.60;;;18.53;84.22
12536;BME280;6334;48.696;2.114;2023-09-18T02:27:34;99028.42;;;18.04;86.02
12536;BME280;6334;48.696;2.114;2023-09-18T02:30:05;99035.73;;;18.24;85.09
12536;BME280;6334;48.696;2.114;2023-09-18T02:32:37;99044.34;;;18.28;85.01
12536;BME280;6334;48.696;2.114;2023-09-18T02:35:07;99003.01;;;17.92;85.97
12536;BME280;6334;48.696;2.114;2023-09-18T02:37:38;99047.17;;;18.32;84.77
12536;BME280;6334;48.696;2.114;2023-09-18T02:40:08;99042.12;;;18.32;85.58
12536;BME280;6334;48.696;2.114;2023-09-18T02:42:39;99044.03;;;18.26;85.46
12536;BME280;6334;48.696;2.114;2023-09-18T02:45:09;99044.96;;;18.36;85.04
12536;BME280;6334;48.696;2.114;2023-09-18T02:47:40;99047.52;;;18.26;85.59
12536;BME280;6334;48.696;2.114;2023-09-18T02:50:10;99042.80;;;18.37;85.43
12536;BME280;6334;48.696;2.114;2023-09-18T02:52:41;99037.46;;;17.93;87.09
12536;BME280;6334;48.696;2.114;2023-09-18T02:55:11;99030.73;;;18.21;85.76
12536;BME280;6334;48.696;2.114;2023-09-18T02:57:41;99031.16;;;18.28;85.57
12536;BME280;6334;48.696;2.114;2023-09-18T03:00:13;99033.19;;;18.38;85.74
12536;BME280;6334;48.696;2.114;2023-09-18T03:02:43;99023.94;;;18.43;85.33
12536;BME280;6334;48.696;2.114;2023-09-18T03:05:14;99028.59;;;18.55;84.10
12536;BME280;6334;48.696;2.114;2023-09-18T03:07:44;99027.00;;;18.50;84.95
12536;BME280;6334;48.696;2.114;2023-09-18T03:10:15;99025.36;;;18.62;84.56
12536;BME280;6334;48.696;2.114;2023-09-18T03:12:47;99020.48;;;18.25;86.07
12536;BME280;6334;48.696;2.114;2023-09-18T03:15:16;99014.29;;;18.41;86.01
12536;BME280;6334;48.696;2.114;2023-09-18T03:17:46;99013.66;;;18.38;85.36
12536;BME280;6334;48.696;2.114;2023-09-18T03:20:17;99005.70;;;18.38;85.18
12536;BME280;6334;48.696;2.114;2023-09-18T03:22:47;99002.23;;;18.24;85.75
12536;BME280;6334;48.696;2.114;2023-09-18T03:25:17;98999.55;;;18.36;85.24
12536;BME280;6334;48.696;2.114;2023-09-18T03:27:49;99018.45;;;18.44;85.41
12536;BME280;6334;48.696;2.114;2023-09-18T03:30:19;99020.58;;;18.24;85.71
12536;BME280;6334;48.696;2.114;2023-09-18T03:32:49;99018.20;;;18.38;85.89
12536;BME280;6334;48.696;2.114;2023-09-18T03:35:19;99008.31;;;18.36;85.30
12536;BME280;6334;48.696;2.114;2023-09-18T03:37:50;99001.05;;;18.33;86.00
12536;BME280;6334;48.696;2.114;2023-09-18T03:40:23;98998.31;;;18.39;85.16
12536;BME280;6334;48.696;2.114;2023-09-18T03:42:54;99000.57;;;18.22;85.98
12536;BME280;6334;48.696;2.114;2023-09-18T03:45:24;99000.17;;;18.28;85.82
12536;BME280;6334;48.696;2.114;2023-09-18T03:47:55;98998.11;;;18.29;86.13
12536;BME280;6334;48.696;2.114;2023-09-18T03:50:25;98998.62;;;18.28;85.57
12536;BME280;6334;48.696;2.114;2023-09-18T03:52:55;99000.71;;;18.41;85.82
12536;BME280;6334;48.696;2.114;2023-09-18T03:55:26;98999.62;;;18.25;86.65
12536;BME280;6334;48.696;2.114;2023-09-18T03:57:56;98998.41;;;18.42;85.16
12536;BME280;6334;48.696;2.114;2023-09-18T04:00:27;98974.19;;;18.10;86.00
12536;BME280;6334;48.696;2.114;2023-09-18T04:02:57;98975.88;;;18.17;86.03
12536;BME280;6334;48.696;2.114;2023-09-18T04:05:29;98988.84;;;18.13;86.47
12536;BME280;6334;48.696;2.114;2023-09-18T04:08:00;98991.59;;;18.46;84.79
12536;BME280;6334;48.696;2.114;2023-09-18T04:10:30;98993.17;;;18.40;85.39
12536;BME280;6334;48.696;2.114;2023-09-18T04:13:00;98994.33;;;18.34;85.33
12536;BME280;6334;48.696;2.114;2023-09-18T04:15:31;98993.77;;;18.49;84.79
12536;BME280;6334;48.696;2.114;2023-09-18T04:18:01;98991.18;;;18.33;85.26
12536;BME280;6334;48.696;2.114;2023-09-18T04:20:32;98999.75;;;18.23;85.45
12536;BME280;6334;48.696;2.114;2023-09-18T04:23:47;98998.88;;;18.34;84.93
12536;BME280;6334;48.696;2.114;2023-09-18T04:25:38;98997.11;;;18.22;85.74
12536;BME280;6334;48.696;2.114;2023-09-18T04:28:08;98995.15;;;18.09;86.37
12536;BME280;6334;48.696;2.114;2023-09-18T04:30:39;98985.46;;;18.10;85.87
12536;BME280;6334;48.696;2.114;2023-09-18T04:33:10;98995.55;;;18.09;86.24
12536;BME280;6334;48.696;2.114;2023-09-18T04:35:40;98957.72;;;18.00;85.80
12536;BME280;6334;48.696;2.114;2023-09-18T04:38:10;98992.17;;;18.10;86.13
12536;BME280;6334;48.696;2.114;2023-09-18T04:40:44;98999.84;;;18.43;84.71
12536;BME280;6334;48.696;2.114;2023-09-18T04:43:14;99002.78;;;18.15;86.09
12536;BME280;6334;48.696;2.114;2023-09-18T04:45:45;98998.52;;;18.24;85.63
12536;BME280;6334;48.696;2.114;2023-09-18T04:48:15;98999.65;;;18.24;85.58
12536;BME280;6334;48.696;2.114;2023-09-18T04:50:46;98997.48;;;18.77;83.48
12536;BME280;6334;48.696;2.114;2023-09-18T04:53:16;99000.34;;;18.48;84.52
12536;BME280;6334;48.696;2.114;2023-09-18T04:55:46;99000.20;;;18.31;85.60
12536;BME280;6334;48.696;2.114;2023-09-18T04:58:17;98996.48;;;18.32;84.99
12536;BME280;6334;48.696;2.114;2023-09-18T05:00:57;98994.55;;;18.33;84.86
12536;BME280;6334;48.696;2.114;2023-09-18T05:03:18;98996.67;;;18.69;83.59
12536;BME280;6334;48.696;2.114;2023-09-18T05:05:48;99000.88;;;18.53;84.51
12536;BME280;6334;48.696;2.114;2023-09-18T05:08:19;98996.34;;;18.33;85.01
12536;BME280;6334;48.696;2.114;2023-09-18T05:10:49;98992.36;;;18.27;85.81
12536;BME280;6334;48.696;2.114;2023-09-18T05:13:20;98992.05;;;18.46;85.01
12536;BME280;6334;48.696;2.114;2023-09-18T05:15:50;99004.13;;;18.47;84.86
12536;BME280;6334;48.696;2.114;2023-09-18T05:18:21;98969.16;;;18.17;85.18
12536;BME280;6334;48.696;2.114;2023-09-18T05:20:51;99005.10;;;18.45;84.72
12536;BME280;6334;48.696;2.114;2023-09-18T05:23:22;99004.63;;;18.29;85.51
12536;BME280;6334;48.696;2.114;2023-09-18T05:25:52;98999.25;;;18.12;86.34
12536;BME280;6334;48.696;2.114;2023-09-18T05:28:22;99000.66;;;18.24;85.69
12536;BME280;6334;48.696;2.114;2023-09-18T05:30:53;99002.71;;;18.32;85.39
12536;BME280;6334;48.696;2.114;2023-09-18T05:33:23;98997.16;;;18.21;85.79
12536;BME280;6334;48.696;2.114;2023-09-18T05:35:54;98994.31;;;18.35;85.18
12536;BME280;6334;48.696;2.114;2023-09-18T05:38:24;98997.97;;;18.42;85.12
12536;BME280;6334;48.696;2.114;2023-09-18T05:40:55;99000.88;;;18.51;84.61
12536;BME280;6334;48.696;2.114;2023-09-18T05:43:25;98998.48;;;18.79;83.22
12536;BME280;6334;48.696;2.114;2023-09-18T05:45:56;99002.70;;;18.46;85.28
12536;BME280;6334;48.696;2.114;2023-09-18T05:48:26;98983.31;;;18.39;84.83
12536;BME280;6334;48.696;2.114;2023-09-18T05:50:57;99018.98;;;18.31;86.40
12536;BME280;6334;48.696;2.114;2023-09-18T05:53:27;99022.36;;;18.28;86.24
12536;BME280;6334;48.696;2.114;2023-09-18T05:55:57;99022.30;;;18.22;86.02
12536;BME280;6334;48.696;2.114;2023-09-18T05:58:28;99034.19;;;18.33;85.82
12536;BME280;6334;48.696;2.114;2023-09-18T06:00:58;99037.53;;;18.29;86.12
12536;BME280;6334;48.696;2.114;2023-09-18T06:03:29;99034.03;;;18.43;85.50
12536;BME280;6334;48.696;2.114;2023-09-18T06:05:59;99029.56;;;18.32;85.98
12536;BME280;6334;48.696;2.114;2023-09-18T06:08:30;99029.38;;;18.21;86.72
12536;BME280;6334;48.696;2.114;2023-09-18T06:11:01;99034.50;;;18.15;86.75
12536;BME280;6334;48.696;2.114;2023-09-18T06:13:32;99035.30;;;18.25;86.28
12536;BME280;6334;48.696;2.114;2023-09-18T06:16:02;99035.95;;;18.12;87.11
12536;BME280;6334;48.696;2.114;2023-09-18T06:18:32;99039.47;;;18.22;86.75
12536;BME280;6334;48.696;2.114;2023-09-18T06:21:03;99032.13;;;18.34;86.48
12536;BME280;6334;48.696;2.114;2023-09-18T06:23:33;99042.50;;;18.45;85.71
12536;BME280;6334;48.696;2.114;2023-09-18T06:26:04;99046.05;;;18.21;87.35
12536;BME280;6334;48.696;2.114;2023-09-18T06:28:34;99044.64;;;18.21;87.06
12536;BME280;6334;48.696;2.114;2023-09-18T06:31:05;99041.48;;;18.31;86.51
12536;BME280;6334;48.696;2.114;2023-09-18T06:33:35;99041.98;;;18.35;86.71
12536;BME280;6334;48.696;2.114;2023-09-18T06:36:06;99044.85;;;18.53;85.54
12536;BME280;6334;48.696;2.114;2023-09-18T06:38:36;99045.28;;;18.56;85.90
12536;BME280;6334;48.696;2.114;2023-09-18T06:41:07;99047.33;;;18.44;85.83
12536;BME280;6334;48.696;2.114;2023-09-18T06:43:37;99060.06;;;18.33;86.61
12536;BME280;6334;48.696;2.114;2023-09-18T06:46:08;99053.38;;;18.51;85.99
12536;BME280;6334;48.696;2.114;2023-09-18T06:48:38;99058.39;;;18.40;86.47
12536;BME280;6334;48.696;2.114;2023-09-18T06:51:08;99064.58;;;18.23;87.06
12536;BME280;6334;48.696;2.114;2023-09-18T06:53:39;99056.84;;;18.37;86.61
12536;BME280;6334;48.696;2.114;2023-09-18T06:56:09;99061.30;;;18.39;86.24
12536;BME280;6334;48.696;2.114;2023-09-18T06:58:40;99065.64;;;18.48;86.44
12536;BME280;6334;48.696;2.114;2023-09-18T07:01:10;99076.38;;;18.43;86.56
12536;BME280;6334;48.696;2.114;2023-09-18T07:03:41;99079.67;;;18.43;86.65
12536;BME280;6334;48.696;2.114;2023-09-18T07:06:11;99082.94;;;18.69;86.00
12536;BME280;6334;48.696;2.114;2023-09-18T07:08:42;99080.44;;;18.53;86.21
12536;BME280;6334;48.696;2.114;2023-09-18T07:11:12;99078.23;;;18.55;86.23
12536;BME280;6334;48.696;2.114;2023-09-18T07:13:43;99081.55;;;18.36;87.01
12536;BME280;6334;48.696;2.114;2023-09-18T07:16:13;99075.84;;;18.65;85.96
12536;BME280;6334;48.696;2.114;2023-09-18T07:18:43;99086.54;;;18.29;87.12
12536;BME280;6334;48.696;2.114;2023-09-18T07:21:14;99073.97;;;18.33;86.57
12536;BME280;6334;48.696;2.114;2023-09-18T07:23:45;99069.77;;;18.41;86.63
12536;BME280;6334;48.696;2.114;2023-09-18T07:26:15;99071.45;;;18.61;85.78
12536;BME280;6334;48.696;2.114;2023-09-18T07:28:45;99081.15;;;18.69;85.50
12536;BME280;6334;48.696;2.114;2023-09-18T07:31:16;99086.34;;;18.96;84.16
12536;BME280;6334;48.696;2.114;2023-09-18T07:33:46;99087.67;;;18.64;85.69
12536;BME280;6334;48.696;2.114;2023-09-18T07:36:17;99088.72;;;18.59;85.32
12536;BME280;6334;48.696;2.114;2023-09-18T07:38:47;99092.03;;;18.66;85.54
12536;BME280;6334;48.696;2.114;2023-09-18T07:41:18;99083.34;;;18.79;84.65
12536;BME280;6334;48.696;2.114;2023-09-18T07:43:48;99083.51;;;18.66;85.18
12536;BME280;6334;48.696;2.114;2023-09-18T07:46:18;99084.22;;;18.97;84.18
12536;BME280;6334;48.696;2.114;2023-09-18T07:48:49;99094.06;;;18.84;84.57
12536;BME280;6334;48.696;2.114;2023-09-18T07:51:19;99092.89;;;18.60;84.59
12536;BME280;6334;48.696;2.114;2023-09-18T07:53:50;99100.16;;;19.09;83.24
12536;BME280;6334;48.696;2.114;2023-09-18T07:56:20;99103.34;;;18.94;84.05
12536;BME280;6334;48.696;2.114;2023-09-18T07:58:51;99099.34;;;18.88;84.37
12536;BME280;6334;48.696;2.114;2023-09-18T08:01:21;99095.16;;;18.64;84.59
12536;BME280;6334;48.696;2.114;2023-09-18T08:03:52;99107.14;;;18.60;84.29
12536;BME280;6334;48.696;2.114;2023-09-18T08:06:22;99096.90;;;19.08;82.17
12536;BME280;6334;48.696;2.114;2023-09-18T08:08:53;99091.67;;;19.01;82.69
12536;BME280;6334;48.696;2.114;2023-09-18T08:11:23;99090.80;;;19.03;81.78
12536;BME280;6334;48.696;2.114;2023-09-18T08:13:53;99086.25;;;19.00;81.75
12536;BME280;6334;48.696;2.114;2023-09-18T08:16:24;99087.91;;;18.96;82.13
12536;BME280;6334;48.696;2.114;2023-09-18T08:18:54;99090.67;;;19.02;81.35
12536;BME280;6334;48.696;2.114;2023-09-18T08:21:25;99100.42;;;19.07;81.83
12536;BME280;6334;48.696;2.114;2023-09-18T08:23:58;99104.77;;;18.90;82.52
12536;BME280;6334;48.696;2.114;2023-09-18T08:26:28;99108.13;;;18.86;82.15
12536;BME280;6334;48.696;2.114;2023-09-18T08:28:59;99111.92;;;18.77;82.62
12536;BME280;6334;48.696;2.114;2023-09-18T08:31:29;99103.45;;;18.88;82.41
12536;BME280;6334;48.696;2.114;2023-09-18T08:34:00;99110.42;;;19.13;82.13
12536;BME280;6334;48.696;2.114;2023-09-18T08:36:30;99110.74;;;19.12;82.42
12536;BME280;6334;48.696;2.114;2023-09-18T08:39:00;99109.74;;;19.25;82.01
12536;BME280;6334;48.696;2.114;2023-09-18T08:41:31;99076.84;;;18.93;82.00
12536;BME280;6334;48.696;2.114;2023-09-18T08:44:02;99113.90;;;19.13;81.97
12536;BME280;6334;48.696;2.114;2023-09-18T08:46:31;99123.78;;;19.13;81.86
12536;BME280;6334;48.696;2.114;2023-09-18T08:49:01;99126.30;;;19.21;81.36
12536;BME280;6334;48.696;2.114;2023-09-18T08:51:32;99123.25;;;19.24;80.53
12536;BME280;6334;48.696;2.114;2023-09-18T08:54:03;99122.98;;;19.19;80.27
12536;BME280;6334;48.696;2.114;2023-09-18T08:56:33;99131.42;;;19.44;80.13
12536;BME280;6334;48.696;2.114;2023-09-18T08:59:03;99126.02;;;19.21;80.15
12536;BME280;6334;48.696;2.114;2023-09-18T09:01:34;99127.14;;;19.61;79.39
12536;BME280;6334;48.696;2.114;2023-09-18T09:04:04;99119.86;;;19.46;79.92
12536;BME280;6334;48.696;2.114;2023-09-18T09:06:35;99108.81;;;19.51;79.42
12536;BME280;6334;48.696;2.114;2023-09-18T09:09:05;99110.70;;;19.56;79.04
12536;BME280;6334;48.696;2.114;2023-09-18T09:11:36;99097.06;;;19.54;78.89
12536;BME280;6334;48.696;2.114;2023-09-18T09:14:13;99099.94;;;19.82;79.02
12536;BME280;6334;48.696;2.114;2023-09-18T09:16:46;99102.11;;;19.46;79.18
12536;BME280;6334;48.696;2.114;2023-09-18T09:19:12;99097.52;;;19.89;78.43
12536;BME280;6334;48.696;2.114;2023-09-18T09:21:43;99098.91;;;20.00;78.38
12536;BME280;6334;48.696;2.114;2023-09-18T09:24:13;99095.05;;;19.86;78.59
12536;BME280;6334;48.696;2.114;2023-09-18T09:26:44;99102.83;;;19.60;78.39
12536;BME280;6334;48.696;2.114;2023-09-18T09:29:20;99101.48;;;19.80;77.79
12536;BME280;6334;48.696;2.114;2023-09-18T09:31:51;99104.98;;;19.54;78.55
12536;BME280;6334;48.696;2.114;2023-09-18T09:34:26;99108.26;;;19.69;78.23
12536;BME280;6334;48.696;2.114;2023-09-18T09:36:55;99108.45;;;19.83;77.38
12536;BME280;6334;48.696;2.114;2023-09-18T09:39:25;99113.36;;;19.92;76.99
12536;BME280;6334;48.696;2.114;2023-09-18T09:41:56;99120.18;;;20.12;76.66
12536;BME280;6334;48.696;2.114;2023-09-18T09:44:26;99109.28;;;20.07;76.38
12536;BME280;6334;48.696;2.114;2023-09-18T09:46:56;99123.09;;;20.23;76.11
12536;BME280;6334;48.696;2.114;2023-09-18T09:49:27;99126.09;;;20.37;75.20
12536;BME280;6334;48.696;2.114;2023-09-18T09:51:58;99125.16;;;20.47;74.66
12536;BME280;6334;48.696;2.114;2023-09-18T09:54:33;99124.06;;;20.43;74.78
12536;BME280;6334;48.696;2.114;2023-09-18T09:57:03;99114.30;;;20.61;73.80
12536;BME280;6334;48.696;2.114;2023-09-18T09:59:34;99126.91;;;20.58;73.39
12536;BME280;6334;48.696;2.114;2023-09-18T10:02:05;99127.45;;;20.89;73.04
12536;BME280;6334;48.696;2.114;2023-09-18T10:04:35;99133.97;;;20.91;72.45
12536;BME280;6334;48.696;2.114;2023-09-18T10:07:06;99126.92;;;20.72;72.91
12536;BME280;6334;48.696;2.114;2023-09-18T10:09:36;99136.59;;;20.57;72.41
12536;BME280;6334;48.696;2.114;2023-09-18T10:12:11;99140.13;;;20.99;73.03
12536;BME280;6334;48.696;2.114;2023-09-18T10:14:37;99137.23;;;20.71;72.42
12536;BME280;6334;48.696;2.114;2023-09-18T10:17:16;99132.41;;;20.73;72.12
12536;BME280;6334;48.696;2.114;2023-09-18T10:22:39;99129.89;;;20.74;72.51
12536;BME280;6334;48.696;2.114;2023-09-18T10:27:49;99139.27;;;20.81;73.60
12536;BME280;6334;48.696;2.114;2023-09-18T10:30:22;99138.56;;;20.93;73.15
12536;BME280;6334;48.696;2.114;2023-09-18T10:32:52;99134.13;;;21.11;72.46
12536;BME280;6334;48.696;2.114;2023-09-18T10:35:23;99121.77;;;20.78;71.58
12536;BME280;6334;48.696;2.114;2023-09-18T10:37:54;99133.14;;;20.93;71.58
12536;BME280;6334;48.696;2.114;2023-09-18T10:40:24;99136.61;;;20.80;72.63
12536;BME280;6334;48.696;2.114;2023-09-18T10:42:55;99136.89;;;20.79;72.62
12536;BME280;6334;48.696;2.114;2023-09-18T10:45:25;99134.19;;;21.08;71.79
12536;BME280;6334;48.696;2.114;2023-09-18T10:47:56;99123.86;;;20.94;71.49
12536;BME280;6334;48.696;2.114;2023-09-18T10:50:26;99142.83;;;21.38;71.53
12536;BME280;6334;48.696;2.114;2023-09-18T10:52:57;99138.83;;;21.37;71.35
12536;BME280;6334;48.696;2.114;2023-09-18T10:55:27;99139.56;;;21.19;71.83
12536;BME280;6334;48.696;2.114;2023-09-18T10:57:59;99145.52;;;21.22;72.18
12536;BME280;6334;48.696;2.114;2023-09-18T11:00:31;99146.57;;;20.94;71.62
12536;BME280;6334;48.696;2.114;2023-09-18T11:03:17;99149.72;;;20.87;71.80
12536;BME280;6334;48.696;2.114;2023-09-18T11:05:46;99142.67;;;21.09;71.07
12536;BME280;6334;48.696;2.114;2023-09-18T11:08:34;99137.81;;;21.96;69.88
12536;BME280;6334;48.696;2.114;2023-09-18T11:11:06;99137.88;;;21.61;70.16
12536;BME280;6334;48.696;2.114;2023-09-18T11:13:40;99143.78;;;21.57;68.73
12536;BME280;6334;48.696;2.114;2023-09-18T11:16:33;99145.75;;;21.56;68.72
12536;BME280;6334;48.696;2.114;2023-09-18T11:18:52;99140.52;;;21.65;68.35
12536;BME280;6334;48.696;2.114;2023-09-18T11:21:27;99148.73;;;21.76;67.97
12536;BME280;6334;48.696;2.114;2023-09-18T11:24:05;99145.00;;;21.49;68.51
12536;BME280;6334;48.696;2.114;2023-09-18T11:26:35;99137.13;;;21.81;67.53
12536;BME280;6334;48.696;2.114;2023-09-18T11:29:06;99133.02;;;21.68;67.53
12536;BME280;6334;48.696;2.114;2023-09-18T11:31:45;99136.03;;;21.84;67.99
12536;BME280;6334;48.696;2.114;2023-09-18T11:34:24;99133.20;;;21.78;68.43
12536;BME280;6334;48.696;2.114;2023-09-18T11:36:54;99121.98;;;21.84;66.96
12536;BME280;6334;48.696;2.114;2023-09-18T11:39:41;99127.00;;;22.01;66.28
12536;BME280;6334;48.696;2.114;2023-09-18T11:42:18;99091.86;;;21.88;66.37
12536;BME280;6334;48.696;2.114;2023-09-18T11:44:51;99127.30;;;22.40;66.60
12536;BME280;6334;48.696;2.114;2023-09-18T11:47:24;99114.16;;;22.17;66.24
12536;BME280;6334;48.696;2.114;2023-09-18T11:49:57;99119.20;;;22.39;65.99
12536;BME280;6334;48.696;2.114;2023-09-18T11:52:28;99121.09;;;22.03;65.02
12536;BME280;6334;48.696;2.114;2023-09-18T11:54:58;99121.33;;;22.32;65.45
12536;BME280;6334;48.696;2.114;2023-09-18T11:57:28;99126.28;;;22.52;65.11
12536;BME280;6334;48.696;2.114;2023-09-18T11:59:59;99120.33;;;22.18;64.27
12536;BME280;6334;48.696;2.114;2023-09-18T12:02:29;99118.64;;;22.10;64.26
12536;BME280;6334;48.696;2.114;2023-09-18T12:05:15;99123.13;;;22.14;64.24
12536;BME280;6334;48.696;2.114;2023-09-18T12:07:45;99113.50;;;22.20;64.76
12536;BME280;6334;48.696;2.114;2023-09-18T12:10:15;99112.86;;;21.91;64.69
12536;BME280;6334;48.696;2.114;2023-09-18T12:12:45;99121.20;;;22.04;64.63
12536;BME280;6334;48.696;2.114;2023-09-18T12:15:18;99118.20;;;22.24;63.25
12536;BME280;6334;48.696;2.114;2023-09-18T12:17:46;99114.05;;;22.36;63.53
12536;BME280;6334;48.696;2.114;2023-09-18T12:20:16;99108.44;;;22.07;65.24
12536;BME280;6334;48.696;2.114;2023-09-18T12:22:50;99110.14;;;21.88;65.43
12536;BME280;6334;48.696;2.114;2023-09-18T12:25:20;99107.03;;;21.70;64.61
12536;BME280;6334;48.696;2.114;2023-09-18T12:27:53;99117.74;;;21.87;65.46
12536;BME280;6334;48.696;2.114;2023-09-18T12:30:23;99114.60;;;21.56;65.75
12536;BME280;6334;48.696;2.114;2023-09-18T12:32:54;99108.83;;;21.61;65.19
12536;BME280;6334;48.696;2.114;2023-09-18T12:35:24;99110.73;;;21.76;66.26
12536;BME280;6334;48.696;2.114;2023-09-18T12:37:58;99112.20;;;21.43;67.09
12536;BME280;6334;48.696;2.114;2023-09-18T12:40:29;99122.35;;;21.12;67.50
12536;BME280;6334;48.696;2.114;2023-09-18T12:43:01;99121.62;;;21.07;68.48
12536;BME280;6334;48.696;2.114;2023-09-18T12:45:32;99121.76;;;21.15;67.90
12536;BME280;6334;48.696;2.114;2023-09-18T12:48:02;99118.52;;;21.41;67.00
12536;BME280;6334;48.696;2.114;2023-09-18T12:50:33;99114.88;;;21.39;67.54
12536;BME280;6334;48.696;2.114;2023-09-18T12:53:09;99119.45;;;21.57;66.90
12536;BME280;6334;48.696;2.114;2023-09-18T12:55:39;99113.83;;;21.47;67.59
12536;BME280;6334;48.696;2.114;2023-09-18T12:58:12;99113.57;;;21.55;67.72
12536;BME280;6334;48.696;2.114;2023-09-18T13:00:48;99114.41;;;21.63;68.48
12536;BME280;6334;48.696;2.114;2023-09-18T13:03:19;99103.25;;;21.55;66.37
12536;BME280;6334;48.696;2.114;2023-09-18T13:05:49;99098.62;;;21.89;65.91
12536;BME280;6334;48.696;2.114;2023-09-18T13:08:22;99096.66;;;22.07;64.44
12536;BME280;6334;48.696;2.114;2023-09-18T13:10:53;99098.90;;;22.17;63.37
12536;BME280;6334;48.696;2.114;2023-09-18T13:13:23;99065.57;;;22.14;63.21
12536;BME280;6334;48.696;2.114;2023-09-18T13:15:56;99094.73;;;22.50;61.84
12536;BME280;6334;48.696;2.114;2023-09-18T13:18:24;99090.57;;;22.41;60.59
12536;BME280;6334;48.696;2.114;2023-09-18T13:20:55;99088.31;;;22.30;60.36
12536;BME280;6334;48.696;2.114;2023-09-18T13:23:28;99095.81;;;22.18;61.30
12536;BME280;6334;48.696;2.114;2023-09-18T13:26:02;99095.29;;;22.33;62.43
12536;BME280;6334;48.696;2.114;2023-09-18T13:28:31;99094.13;;;22.38;61.70
12536;BME280;6334;48.696;2.114;2023-09-18T13:31:02;99096.27;;;22.35;61.05
12536;BME280;6334;48.696;2.114;2023-09-18T13:33:32;99099.25;;;22.38;59.81
12536;BME280;6334;48.696;2.114;2023-09-18T13:36:03;99102.44;;;22.40;61.40
12536;BME280;6334;48.696;2.114;2023-09-18T13:38:33;99096.54;;;22.38;61.28